sensor_id;sensor_type;location;lat;lon;timestamp;temperature;humidity
10536;DHT22;5316;49.538;8.352;2023-02-26T00:18:49;0.60;98.70
10536;DHT22;5316;49.538;8.352;2023-02-26T00:22:37;0.60;99.90
10536;DHT22;5316;49.538;8.352;2023-02-26T00:28:48;0.60;99.90
10536;DHT22;5316;49.538;8.352;2023-02-26T00:32:00;0.60;99.90
10536;DHT22;5316;49.538;8.352;2023-02-26T09:14:44;2.20;46.90
10536;DHT22;5316;49.538;8.352;2023-02-26T11:05:54;4.20;99.90
10536;DHT22;5316;49.538;8.352;2023-02-26T11:08:28;4.30;99.90
10536;DHT22;5316;49.538;8.352;2023-02-26T11:11:00;4.30;99.90
10536;DHT22;5316;49.538;8.352;2023-02-26T11:13:30;4.40;99.90
10536;DHT22;5316;49.538;8.352;2023-02-26T11:16:05;4.50;99.90
10536;DHT22;5316;49.538;8.352;2023-02-26T11:18:38;4.40;99.90
10536;DHT22;5316;49.538;8.352;2023-02-26T11:21:08;4.50;99.90
10536;DHT22;5316;49.538;8.352;2023-02-26T11:23:43;4.50;99.90
10536;DHT22;5316;49.538;8.352;2023-02-26T11:26:16;4.50;99.90
10536;DHT22;5316;49.538;8.352;2023-02-26T11:28:46;4.70;99.90
10536;DHT22;5316;49.538;8.352;2023-02-26T11:31:16;4.80;99.90
10536;DHT22;5316;49.538;8.352;2023-02-26T11:33:48;5.00;99.90
10536;DHT22;5316;49.538;8.352;2023-02-26T11:36:18;5.10;99.90
10536;DHT22;5316;49.538;8.352;2023-02-26T11:38:48;5.20;99.90
10536;DHT22;5316;49.538;8.352;2023-02-26T11:41:18;5.30;80.20
10536;DHT22;5316;49.538;8.352;2023-02-26T11:43:47;5.10;86.30
10536;DHT22;5316;49.538;8.352;2023-02-26T11:46:15;5.00;61.50
10536;DHT22;5316;49.538;8.352;2023-02-26T11:48:44;4.90;82.80
10536;DHT22;5316;49.538;8.352;2023-02-26T11:51:13;5.00;95.20
10536;DHT22;5316;49.538;8.352;2023-02-26T11:53:47;5.00;99.90
10536;DHT22;5316;49.538;8.352;2023-02-26T11:56:25;5.10;93.60
10536;DHT22;5316;49.538;8.352;2023-02-26T11:58:53;5.10;67.10
10536;DHT22;5316;49.538;8.352;2023-02-26T12:01:26;4.90;40.80
10536;DHT22;5316;49.538;8.352;2023-02-26T12:03:57;4.90;68.60
10536;DHT22;5316;49.538;8.352;2023-02-26T12:06:44;4.80;56.90
10536;DHT22;5316;49.538;8.352;2023-02-26T12:09:20;4.80;46.50
10536;DHT22;5316;49.538;8.352;2023-02-26T12:12:06;4.90;59.60
10536;DHT22;5316;49.538;8.352;2023-02-26T12:14:56;4.90;28.20
10536;DHT22;5316;49.538;8.352;2023-02-26T12:17:44;4.90;22.50
10536;DHT22;5316;49.538;8.352;2023-02-26T12:20:19;5.00;31.00
10536;DHT22;5316;49.538;8.352;2023-02-26T12:23:06;5.00;45.40
10536;DHT22;5316;49.538;8.352;2023-02-26T12:26:06;5.00;41.70
10536;DHT22;5316;49.538;8.352;2023-02-26T13:57:06;5.90;1.00
10536;DHT22;5316;49.538;8.352;2023-02-26T13:59:46;5.80;1.00
10536;DHT22;5316;49.538;8.352;2023-02-26T14:02:35;5.70;1.00
10536;DHT22;5316;49.538;8.352;2023-02-26T14:05:09;5.70;1.00
10536;DHT22;5316;49.538;8.352;2023-02-26T14:07:47;5.70;1.00
10536;DHT22;5316;49.538;8.352;2023-02-26T14:10:17;5.70;1.00
10536;DHT22;5316;49.538;8.352;2023-02-26T14:13:02;5.60;1.00
10536;DHT22;5316;49.538;8.352;2023-02-26T14:15:40;5.60;1.00
10536;DHT22;5316;49.538;8.352;2023-02-26T14:18:20;5.60;1.00
10536;DHT22;5316;49.538;8.352;2023-02-26T14:20:51;5.50;1.00
10536;DHT22;5316;49.538;8.352;2023-02-26T14:23:39;5.60;1.00
10536;DHT22;5316;49.538;8.352;2023-02-26T14:26:15;5.50;1.00
10536;DHT22;5316;49.538;8.352;2023-02-26T14:28:55;5.40;1.00
10536;DHT22;5316;49.538;8.352;2023-02-26T14:31:23;5.40;1.00
10536;DHT22;5316;49.538;8.352;2023-02-26T14:34:12;5.40;1.00
10536;DHT22;5316;49.538;8.352;2023-02-26T14:36:44;5.30;1.00
10536;DHT22;5316;49.538;8.352;2023-02-26T14:39:22;5.20;1.00
10536;DHT22;5316;49.538;8.352;2023-02-26T14:41:52;5.10;1.00
10536;DHT22;5316;49.538;8.352;2023-02-26T14:44:24;5.10;1.00
10536;DHT22;5316;49.538;8.352;2023-02-26T14:46:52;5.00;20.40
10536;DHT22;5316;49.538;8.352;2023-02-26T14:49:26;5.00;38.30
10536;DHT22;5316;49.538;8.352;2023-02-26T14:55:07;5.00;48.30
10536;DHT22;5316;49.538;8.352;2023-02-26T14:57:46;4.90;41.10
10536;DHT22;5316;49.538;8.352;2023-02-26T15:00:25;4.90;39.40
10536;DHT22;5316;49.538;8.352;2023-02-26T15:03:11;4.80;41.30
10536;DHT22;5316;49.538;8.352;2023-02-26T15:05:49;4.80;66.60
10536;DHT22;5316;49.538;8.352;2023-02-26T15:08:35;4.80;32.80
10536;DHT22;5316;49.538;8.352;2023-02-26T15:11:18;4.80;31.00
10536;DHT22;5316;49.538;8.352;2023-02-26T15:14:15;4.80;21.20
10536;DHT22;5316;49.538;8.352;2023-02-26T15:16:55;4.80;27.10
10536;DHT22;5316;49.538;8.352;2023-02-26T15:19:39;4.90;31.90
10536;DHT22;5316;49.538;8.352;2023-02-26T15:22:23;4.90;21.00
10536;DHT22;5316;49.538;8.352;2023-02-26T15:24:51;4.80;20.30
10536;DHT22;5316;49.538;8.352;2023-02-26T15:27:19;4.80;20.30
10536;DHT22;5316;49.538;8.352;2023-02-26T15:29:47;4.90;21.70
10536;DHT22;5316;49.538;8.352;2023-02-26T15:32:24;4.90;12.10
10536;DHT22;5316;49.538;8.352;2023-02-26T15:34:57;5.30;1.00
10536;DHT22;5316;49.538;8.352;2023-02-26T15:37:27;5.70;1.00
10536;DHT22;5316;49.538;8.352;2023-02-26T15:39:54;5.70;1.00
10536;DHT22;5316;49.538;8.352;2023-02-26T15:42:25;5.80;1.00
10536;DHT22;5316;49.538;8.352;2023-02-26T15:44:55;6.00;1.00
10536;DHT22;5316;49.538;8.352;2023-02-26T15:57:32;7.30;1.00
10536;DHT22;5316;49.538;8.352;2023-02-26T16:00:07;7.40;1.00
10536;DHT22;5316;49.538;8.352;2023-02-26T16:02:38;7.50;1.00
10536;DHT22;5316;49.538;8.352;2023-02-26T16:05:07;7.30;1.00
10536;DHT22;5316;49.538;8.352;2023-02-26T16:07:37;7.10;1.00
10536;DHT22;5316;49.538;8.352;2023-02-26T16:10:07;6.90;1.00
10536;DHT22;5316;49.538;8.352;2023-02-26T16:12:43;6.60;1.00
10536;DHT22;5316;49.538;8.352;2023-02-26T16:15:16;6.40;1.00
10536;DHT22;5316;49.538;8.352;2023-02-26T16:17:47;6.20;1.00
10536;DHT22;5316;49.538;8.352;2023-02-26T16:20:17;5.90;1.00
10536;DHT22;5316;49.538;8.352;2023-02-26T16:22:46;5.60;1.00
10536;DHT22;5316;49.538;8.352;2023-02-26T16:25:17;5.40;1.00
10536;DHT22;5316;49.538;8.352;2023-02-26T16:27:51;5.20;1.00
10536;DHT22;5316;49.538;8.352;2023-02-26T16:30:23;5.10;1.00
10536;DHT22;5316;49.538;8.352;2023-02-26T16:32:53;5.00;1.00
10536;DHT22;5316;49.538;8.352;2023-02-26T16:48:48;4.40;1.00
10536;DHT22;5316;49.538;8.352;2023-02-26T16:51:20;4.30;1.00
10536;DHT22;5316;49.538;8.352;2023-02-26T17:14:24;3.90;1.00
10536;DHT22;5316;49.538;8.352;2023-02-26T17:17:06;3.80;1.00
10536;DHT22;5316;49.538;8.352;2023-02-26T17:29:50;3.70;1.00
10536;DHT22;5316;49.538;8.352;2023-02-26T17:32:19;3.70;1.00
10536;DHT22;5316;49.538;8.352;2023-02-26T17:34:47;3.70;1.00
10536;DHT22;5316;49.538;8.352;2023-02-26T17:37:28;3.70;1.00
10536;DHT22;5316;49.538;8.352;2023-02-26T17:40:00;3.60;1.00
10536;DHT22;5316;49.538;8.352;2023-02-26T17:42:29;3.60;1.00
10536;DHT22;5316;49.538;8.352;2023-02-26T17:45:19;3.60;1.00
10536;DHT22;5316;49.538;8.352;2023-02-26T17:48:02;3.50;1.00
10536;DHT22;5316;49.538;8.352;2023-02-26T17:50:44;3.50;1.00
10536;DHT22;5316;49.538;8.352;2023-02-26T17:53:43;3.50;1.00
10536;DHT22;5316;49.538;8.352;2023-02-26T17:56:44;3.50;1.00
10536;DHT22;5316;49.538;8.352;2023-02-26T17:59:15;3.50;1.00
10536;DHT22;5316;49.538;8.352;2023-02-26T18:01:44;3.50;1.00
10536;DHT22;5316;49.538;8.352;2023-02-26T18:04:12;3.50;1.00
10536;DHT22;5316;49.538;8.352;2023-02-26T18:06:45;3.50;1.00
10536;DHT22;5316;49.538;8.352;2023-02-26T18:09:12;3.50;1.00
10536;DHT22;5316;49.538;8.352;2023-02-26T18:11:42;3.50;1.00
10536;DHT22;5316;49.538;8.352;2023-02-26T18:14:16;3.50;1.00
10536;DHT22;5316;49.538;8.352;2023-02-26T18:16:45;3.50;1.00
10536;DHT22;5316;49.538;8.352;2023-02-26T18:19:18;3.50;1.00
10536;DHT22;5316;49.538;8.352;2023-02-26T18:21:53;3.50;1.00
10536;DHT22;5316;49.538;8.352;2023-02-26T18:24:20;3.50;1.00
10536;DHT22;5316;49.538;8.352;2023-02-26T22:39:03;0.80;1.00
10536;DHT22;5316;49.538;8.352;2023-02-26T22:42:07;0.80;1.00
10536;DHT22;5316;49.538;8.352;2023-02-26T22:44:54;0.90;1.00
10536;DHT22;5316;49.538;8.352;2023-02-26T22:47:22;0.90;1.00
10536;DHT22;5316;49.538;8.352;2023-02-26T22:50:06;0.90;1.00
10536;DHT22;5316;49.538;8.352;2023-02-26T22:52:34;0.80;1.00
10536;DHT22;5316;49.538;8.352;2023-02-26T22:55:05;0.70;1.00
10536;DHT22;5316;49.538;8.352;2023-02-26T22:57:32;0.70;1.00
10536;DHT22;5316;49.538;8.352;2023-02-26T23:00:08;0.50;1.00
10536;DHT22;5316;49.538;8.352;2023-02-26T23:02:44;0.60;1.00
10536;DHT22;5316;49.538;8.352;2023-02-26T23:05:25;0.60;1.00
10536;DHT22;5316;49.538;8.352;2023-02-26T23:07:55;0.60;1.00
10536;DHT22;5316;49.538;8.352;2023-02-26T23:10:24;0.50;1.00
10536;DHT22;5316;49.538;8.352;2023-02-26T23:12:52;0.50;1.00
10536;DHT22;5316;49.538;8.352;2023-02-26T23:15:21;0.60;1.00
10536;DHT22;5316;49.538;8.352;2023-02-26T23:17:50;0.50;1.00
10536;DHT22;5316;49.538;8.352;2023-02-26T23:20:34;0.50;1.00
10536;DHT22;5316;49.538;8.352;2023-02-26T23:23:19;0.40;1.00
10536;DHT22;5316;49.538;8.352;2023-02-26T23:29:12;0.20;45.60
10536;DHT22;5316;49.538;8.352;2023-02-26T23:31:54;0.20;99.90
10536;DHT22;5316;49.538;8.352;2023-02-26T23:34:25;0.20;99.90
10536;DHT22;5316;49.538;8.352;2023-02-26T23:37:06;0.20;99.90
10536;DHT22;5316;49.538;8.352;2023-02-26T23:40:06;0.20;99.90
10536;DHT22;5316;49.538;8.352;2023-02-26T23:42:50;0.10;99.90
10536;DHT22;5316;49.538;8.352;2023-02-26T23:45:50;0.10;99.90
10536;DHT22;5316;49.538;8.352;2023-02-26T23:48:18;0.10;99.90
10536;DHT22;5316;49.538;8.352;2023-02-26T23:51:14;0.10;99.90
10536;DHT22;5316;49.538;8.352;2023-02-26T23:54:00;0.10;99.90
10536;DHT22;5316;49.538;8.352;2023-02-26T23:56:28;0.10;99.90
10536;DHT22;5316;49.538;8.352;2023-02-26T23:59:14;0.10;99.90
